sensor_id;sensor_type;location;lat;lon;timestamp;P1;durP1;ratioP1;P2;durP2;ratioP2
56824;SDS011;42705;50.326;18.772;2022-12-18T00:03:20;48.80;;;18.85;;
56824;SDS011;42705;50.326;18.772;2022-12-18T00:08:41;51.65;;;16.23;;
56824;SDS011;42705;50.326;18.772;2022-12-18T00:14:03;50.23;;;17.42;;
56824;SDS011;42705;50.326;18.772;2022-12-18T00:19:24;44.27;;;15.72;;
56824;SDS011;42705;50.326;18.772;2022-12-18T00:24:45;46.35;;;17.57;;
56824;SDS011;42705;50.326;18.772;2022-12-18T00:30:07;45.73;;;16.73;;
56824;SDS011;42705;50.326;18.772;2022-12-18T00:35:31;46.90;;;16.32;;
56824;SDS011;42705;50.326;18.772;2022-12-18T00:40:52;48.23;;;16.47;;
56824;SDS011;42705;50.326;18.772;2022-12-18T00:46:13;48.28;;;16.37;;
56824;SDS011;42705;50.326;18.772;2022-12-18T00:51:34;51.70;;;16.55;;
56824;SDS011;42705;50.326;18.772;2022-12-18T00:56:55;48.58;;;16.52;;
56824;SDS011;42705;50.326;18.772;2022-12-18T01:02:16;40.35;;;15.30;;
56824;SDS011;42705;50.326;18.772;2022-12-18T01:07:38;48.60;;;16.80;;
56824;SDS011;42705;50.326;18.772;2022-12-18T01:13:00;39.00;;;15.18;;
56824;SDS011;42705;50.326;18.772;2022-12-18T01:18:21;44.80;;;15.32;;
56824;SDS011;42705;50.326;18.772;2022-12-18T01:23:42;51.28;;;16.00;;
56824;SDS011;42705;50.326;18.772;2022-12-18T01:29:04;48.45;;;15.20;;
56824;SDS011;42705;50.326;18.772;2022-12-18T01:34:26;43.05;;;15.43;;
56824;SDS011;42705;50.326;18.772;2022-12-18T01:39:47;39.95;;;15.18;;
56824;SDS011;42705;50.326;18.772;2022-12-18T01:50:39;44.40;;;15.35;;
56824;SDS011;42705;50.326;18.772;2022-12-18T01:56:02;45.00;;;15.83;;
56824;SDS011;42705;50.326;18.772;2022-12-18T02:01:24;42.00;;;13.83;;
56824;SDS011;42705;50.326;18.772;2022-12-18T02:06:46;40.80;;;15.03;;
56824;SDS011;42705;50.326;18.772;2022-12-18T02:12:24;47.83;;;15.18;;
56824;SDS011;42705;50.326;18.772;2022-12-18T02:18:07;46.88;;;15.83;;
56824;SDS011;42705;50.326;18.772;2022-12-18T02:29:09;44.70;;;16.37;;
56824;SDS011;42705;50.326;18.772;2022-12-18T02:34:39;46.23;;;16.12;;
56824;SDS011;42705;50.326;18.772;2022-12-18T02:40:04;49.15;;;15.83;;
56824;SDS011;42705;50.326;18.772;2022-12-18T02:45:28;47.08;;;16.80;;
56824;SDS011;42705;50.326;18.772;2022-12-18T02:56:39;48.63;;;16.67;;
56824;SDS011;42705;50.326;18.772;2022-12-18T03:07:44;44.67;;;17.07;;
56824;SDS011;42705;50.326;18.772;2022-12-18T03:13:27;43.10;;;14.83;;
56824;SDS011;42705;50.326;18.772;2022-12-18T03:19:06;49.53;;;16.82;;
56824;SDS011;42705;50.326;18.772;2022-12-18T03:24:32;48.68;;;17.10;;
56824;SDS011;42705;50.326;18.772;2022-12-18T03:30:04;51.28;;;17.07;;
56824;SDS011;42705;50.326;18.772;2022-12-18T03:35:33;47.43;;;15.70;;
56824;SDS011;42705;50.326;18.772;2022-12-18T03:41:01;43.83;;;15.85;;
56824;SDS011;42705;50.326;18.772;2022-12-18T03:52:56;42.30;;;16.73;;
56824;SDS011;42705;50.326;18.772;2022-12-18T03:57:55;46.45;;;15.88;;
56824;SDS011;42705;50.326;18.772;2022-12-18T04:03:19;47.48;;;16.35;;
56824;SDS011;42705;50.326;18.772;2022-12-18T04:08:42;44.90;;;16.02;;
56824;SDS011;42705;50.326;18.772;2022-12-18T04:14:06;46.35;;;16.60;;
56824;SDS011;42705;50.326;18.772;2022-12-18T04:19:28;46.55;;;16.97;;
56824;SDS011;42705;50.326;18.772;2022-12-18T04:24:49;47.48;;;15.60;;
56824;SDS011;42705;50.326;18.772;2022-12-18T04:30:13;43.38;;;14.87;;
56824;SDS011;42705;50.326;18.772;2022-12-18T04:35:35;46.08;;;16.70;;
56824;SDS011;42705;50.326;18.772;2022-12-18T04:40:56;44.45;;;16.10;;
56824;SDS011;42705;50.326;18.772;2022-12-18T04:46:19;53.17;;;16.62;;
56824;SDS011;42705;50.326;18.772;2022-12-18T04:51:40;43.23;;;14.85;;
56824;SDS011;42705;50.326;18.772;2022-12-18T05:02:24;48.30;;;17.17;;
56824;SDS011;42705;50.326;18.772;2022-12-18T05:07:45;47.10;;;17.37;;
56824;SDS011;42705;50.326;18.772;2022-12-18T05:13:06;45.27;;;16.60;;
56824;SDS011;42705;50.326;18.772;2022-12-18T05:18:27;49.77;;;16.67;;
56824;SDS011;42705;50.326;18.772;2022-12-18T05:23:49;50.85;;;17.02;;
56824;SDS011;42705;50.326;18.772;2022-12-18T05:29:10;50.78;;;17.32;;
56824;SDS011;42705;50.326;18.772;2022-12-18T05:34:32;53.60;;;17.77;;
56824;SDS011;42705;50.326;18.772;2022-12-18T05:39:53;45.95;;;17.45;;
56824;SDS011;42705;50.326;18.772;2022-12-18T05:45:14;53.45;;;17.35;;
56824;SDS011;42705;50.326;18.772;2022-12-18T05:50:39;51.28;;;16.97;;
56824;SDS011;42705;50.326;18.772;2022-12-18T05:56:02;55.15;;;17.45;;
56824;SDS011;42705;50.326;18.772;2022-12-18T06:01:26;50.88;;;18.23;;
56824;SDS011;42705;50.326;18.772;2022-12-18T06:06:47;49.77;;;17.23;;
56824;SDS011;42705;50.326;18.772;2022-12-18T06:12:09;53.52;;;17.60;;
56824;SDS011;42705;50.326;18.772;2022-12-18T06:17:31;55.92;;;18.73;;
56824;SDS011;42705;50.326;18.772;2022-12-18T06:22:53;59.47;;;19.43;;
56824;SDS011;42705;50.326;18.772;2022-12-18T06:28:14;59.70;;;20.08;;
56824;SDS011;42705;50.326;18.772;2022-12-18T06:33:35;60.35;;;21.12;;
56824;SDS011;42705;50.326;18.772;2022-12-18T06:38:57;67.93;;;22.17;;
56824;SDS011;42705;50.326;18.772;2022-12-18T06:44:19;57.67;;;21.60;;
56824;SDS011;42705;50.326;18.772;2022-12-18T06:49:40;74.45;;;25.92;;
56824;SDS011;42705;50.326;18.772;2022-12-18T06:55:02;73.12;;;25.20;;
56824;SDS011;42705;50.326;18.772;2022-12-18T07:00:24;83.17;;;28.15;;
56824;SDS011;42705;50.326;18.772;2022-12-18T07:05:45;79.80;;;26.68;;
56824;SDS011;42705;50.326;18.772;2022-12-18T07:11:06;80.35;;;26.10;;
56824;SDS011;42705;50.326;18.772;2022-12-18T07:16:27;78.07;;;25.57;;
56824;SDS011;42705;50.326;18.772;2022-12-18T07:21:49;79.30;;;25.55;;
56824;SDS011;42705;50.326;18.772;2022-12-18T07:27:11;82.00;;;26.37;;
56824;SDS011;42705;50.326;18.772;2022-12-18T07:32:32;74.32;;;24.23;;
56824;SDS011;42705;50.326;18.772;2022-12-18T07:37:53;70.92;;;22.37;;
56824;SDS011;42705;50.326;18.772;2022-12-18T07:43:14;71.95;;;22.93;;
56824;SDS011;42705;50.326;18.772;2022-12-18T07:48:35;64.62;;;22.55;;
56824;SDS011;42705;50.326;18.772;2022-12-18T07:53:56;69.53;;;22.42;;
56824;SDS011;42705;50.326;18.772;2022-12-18T07:59:17;65.52;;;20.95;;
56824;SDS011;42705;50.326;18.772;2022-12-18T08:04:39;74.07;;;22.40;;
56824;SDS011;42705;50.326;18.772;2022-12-18T08:10:00;72.25;;;22.10;;
56824;SDS011;42705;50.326;18.772;2022-12-18T08:15:21;67.30;;;22.95;;
56824;SDS011;42705;50.326;18.772;2022-12-18T08:20:42;70.17;;;23.40;;
56824;SDS011;42705;50.326;18.772;2022-12-18T08:26:03;75.03;;;24.97;;
56824;SDS011;42705;50.326;18.772;2022-12-18T08:31:25;72.22;;;23.15;;
56824;SDS011;42705;50.326;18.772;2022-12-18T08:36:47;78.52;;;22.95;;
56824;SDS011;42705;50.326;18.772;2022-12-18T08:42:08;74.70;;;24.20;;
56824;SDS011;42705;50.326;18.772;2022-12-18T08:47:48;74.32;;;23.90;;
56824;SDS011;42705;50.326;18.772;2022-12-18T08:53:09;74.72;;;26.05;;
56824;SDS011;42705;50.326;18.772;2022-12-18T08:58:30;66.57;;;22.98;;
56824;SDS011;42705;50.326;18.772;2022-12-18T09:03:52;63.07;;;21.10;;
56824;SDS011;42705;50.326;18.772;2022-12-18T09:09:13;64.55;;;22.32;;
56824;SDS011;42705;50.326;18.772;2022-12-18T09:14:35;67.65;;;23.73;;
56824;SDS011;42705;50.326;18.772;2022-12-18T09:19:56;72.12;;;24.00;;
56824;SDS011;42705;50.326;18.772;2022-12-18T09:25:17;61.00;;;21.62;;
56824;SDS011;42705;50.326;18.772;2022-12-18T09:30:39;58.28;;;21.25;;
56824;SDS011;42705;50.326;18.772;2022-12-18T09:36:03;64.62;;;22.87;;
56824;SDS011;42705;50.326;18.772;2022-12-18T09:47:18;56.35;;;21.65;;
56824;SDS011;42705;50.326;18.772;2022-12-18T09:52:51;53.10;;;21.05;;
56824;SDS011;42705;50.326;18.772;2022-12-18T09:58:19;53.63;;;19.73;;
56824;SDS011;42705;50.326;18.772;2022-12-18T10:03:53;52.55;;;19.85;;
56824;SDS011;42705;50.326;18.772;2022-12-18T10:21:13;45.70;;;17.62;;
56824;SDS011;42705;50.326;18.772;2022-12-18T10:26:40;47.45;;;18.27;;
56824;SDS011;42705;50.326;18.772;2022-12-18T10:32:02;48.50;;;19.20;;
56824;SDS011;42705;50.326;18.772;2022-12-18T10:37:25;48.45;;;19.30;;
56824;SDS011;42705;50.326;18.772;2022-12-18T10:54:20;62.27;;;24.50;;
56824;SDS011;42705;50.326;18.772;2022-12-18T10:59:53;63.85;;;26.85;;
56824;SDS011;42705;50.326;18.772;2022-12-18T11:10:52;63.65;;;25.43;;
56824;SDS011;42705;50.326;18.772;2022-12-18T11:16:20;69.27;;;27.60;;
56824;SDS011;42705;50.326;18.772;2022-12-18T11:21:41;72.87;;;29.72;;
56824;SDS011;42705;50.326;18.772;2022-12-18T11:27:03;53.45;;;20.77;;
56824;SDS011;42705;50.326;18.772;2022-12-18T11:32:34;63.05;;;24.52;;
56824;SDS011;42705;50.326;18.772;2022-12-18T11:37:59;61.33;;;24.18;;
56824;SDS011;42705;50.326;18.772;2022-12-18T11:43:26;73.67;;;28.38;;
56824;SDS011;42705;50.326;18.772;2022-12-18T11:49:01;70.45;;;27.62;;
56824;SDS011;42705;50.326;18.772;2022-12-18T11:54:45;62.53;;;24.45;;
56824;SDS011;42705;50.326;18.772;2022-12-18T12:00:12;68.72;;;27.20;;
56824;SDS011;42705;50.326;18.772;2022-12-18T12:23:06;63.70;;;28.07;;
56824;SDS011;42705;50.326;18.772;2022-12-18T12:34:25;60.15;;;27.32;;
56824;SDS011;42705;50.326;18.772;2022-12-18T12:40:17;55.93;;;25.57;;
56824;SDS011;42705;50.326;18.772;2022-12-18T12:45:45;60.98;;;27.60;;
56824;SDS011;42705;50.326;18.772;2022-12-18T12:51:12;69.62;;;30.68;;
56824;SDS011;42705;50.326;18.772;2022-12-18T12:57:03;67.15;;;31.33;;
56824;SDS011;42705;50.326;18.772;2022-12-18T13:02:44;67.00;;;33.88;;
56824;SDS011;42705;50.326;18.772;2022-12-18T13:08:25;69.63;;;34.97;;
56824;SDS011;42705;50.326;18.772;2022-12-18T13:19:22;73.10;;;36.98;;
56824;SDS011;42705;50.326;18.772;2022-12-18T13:24:46;76.55;;;39.18;;
56824;SDS011;42705;50.326;18.772;2022-12-18T13:36:02;76.00;;;38.30;;
56824;SDS011;42705;50.326;18.772;2022-12-18T13:41:50;69.95;;;35.65;;
56824;SDS011;42705;50.326;18.772;2022-12-18T13:47:31;73.78;;;36.20;;
56824;SDS011;42705;50.326;18.772;2022-12-18T13:52:55;67.82;;;31.25;;
56824;SDS011;42705;50.326;18.772;2022-12-18T13:58:18;81.37;;;36.17;;
56824;SDS011;42705;50.326;18.772;2022-12-18T14:03:39;64.50;;;29.92;;
56824;SDS011;42705;50.326;18.772;2022-12-18T14:09:00;65.87;;;29.02;;
56824;SDS011;42705;50.326;18.772;2022-12-18T14:14:23;72.15;;;30.90;;
56824;SDS011;42705;50.326;18.772;2022-12-18T14:19:46;75.53;;;32.83;;
56824;SDS011;42705;50.326;18.772;2022-12-18T14:30:41;72.00;;;32.40;;
56824;SDS011;42705;50.326;18.772;2022-12-18T14:36:04;73.87;;;30.88;;
56824;SDS011;42705;50.326;18.772;2022-12-18T14:41:30;83.58;;;35.73;;
56824;SDS011;42705;50.326;18.772;2022-12-18T14:52:26;125.95;;;47.78;;
56824;SDS011;42705;50.326;18.772;2022-12-18T14:57:52;111.12;;;45.10;;
56824;SDS011;42705;50.326;18.772;2022-12-18T15:03:20;128.00;;;51.23;;
56824;SDS011;42705;50.326;18.772;2022-12-18T15:08:42;113.12;;;44.42;;
56824;SDS011;42705;50.326;18.772;2022-12-18T15:20:03;107.80;;;43.20;;
56824;SDS011;42705;50.326;18.772;2022-12-18T15:25:34;117.97;;;46.37;;
56824;SDS011;42705;50.326;18.772;2022-12-18T15:30:59;150.27;;;53.98;;
56824;SDS011;42705;50.326;18.772;2022-12-18T15:36:23;185.07;;;65.00;;
56824;SDS011;42705;50.326;18.772;2022-12-18T15:41:48;192.37;;;70.70;;
56824;SDS011;42705;50.326;18.772;2022-12-18T15:47:17;218.10;;;75.50;;
56824;SDS011;42705;50.326;18.772;2022-12-18T15:52:40;240.92;;;84.52;;
56824;SDS011;42705;50.326;18.772;2022-12-18T15:58:05;259.12;;;88.35;;
56824;SDS011;42705;50.326;18.772;2022-12-18T16:03:28;257.90;;;90.67;;
56824;SDS011;42705;50.326;18.772;2022-12-18T16:08:50;272.17;;;95.80;;
56824;SDS011;42705;50.326;18.772;2022-12-18T16:14:18;264.88;;;93.17;;
56824;SDS011;42705;50.326;18.772;2022-12-18T16:19:47;242.87;;;93.17;;
56824;SDS011;42705;50.326;18.772;2022-12-18T16:25:11;233.45;;;87.97;;
56824;SDS011;42705;50.326;18.772;2022-12-18T16:30:43;264.05;;;90.17;;
56824;SDS011;42705;50.326;18.772;2022-12-18T16:36:05;251.77;;;89.32;;
56824;SDS011;42705;50.326;18.772;2022-12-18T16:46:52;297.80;;;106.58;;
56824;SDS011;42705;50.326;18.772;2022-12-18T16:52:13;299.70;;;108.78;;
56824;SDS011;42705;50.326;18.772;2022-12-18T16:57:34;300.38;;;108.85;;
56824;SDS011;42705;50.326;18.772;2022-12-18T17:02:56;304.35;;;110.75;;
56824;SDS011;42705;50.326;18.772;2022-12-18T17:08:17;330.05;;;118.95;;
56824;SDS011;42705;50.326;18.772;2022-12-18T17:13:38;338.92;;;125.92;;
56824;SDS011;42705;50.326;18.772;2022-12-18T17:19:00;316.88;;;115.35;;
56824;SDS011;42705;50.326;18.772;2022-12-18T17:24:21;288.55;;;106.17;;
56824;SDS011;42705;50.326;18.772;2022-12-18T17:29:43;242.40;;;95.75;;
56824;SDS011;42705;50.326;18.772;2022-12-18T17:35:04;207.27;;;78.87;;
56824;SDS011;42705;50.326;18.772;2022-12-18T17:40:26;224.20;;;79.65;;
56824;SDS011;42705;50.326;18.772;2022-12-18T17:45:48;204.57;;;75.72;;
56824;SDS011;42705;50.326;18.772;2022-12-18T17:51:09;197.50;;;74.05;;
56824;SDS011;42705;50.326;18.772;2022-12-18T17:56:31;195.40;;;71.37;;
56824;SDS011;42705;50.326;18.772;2022-12-18T18:01:52;189.62;;;67.82;;
56824;SDS011;42705;50.326;18.772;2022-12-18T18:07:13;191.10;;;71.45;;
56824;SDS011;42705;50.326;18.772;2022-12-18T18:12:35;174.25;;;64.12;;
56824;SDS011;42705;50.326;18.772;2022-12-18T18:18:15;145.02;;;56.83;;
56824;SDS011;42705;50.326;18.772;2022-12-18T18:23:36;156.05;;;57.40;;
56824;SDS011;42705;50.326;18.772;2022-12-18T18:28:58;144.10;;;54.08;;
56824;SDS011;42705;50.326;18.772;2022-12-18T18:34:22;147.98;;;54.80;;
56824;SDS011;42705;50.326;18.772;2022-12-18T18:39:45;141.25;;;50.85;;
56824;SDS011;42705;50.326;18.772;2022-12-18T18:45:07;128.18;;;45.40;;
56824;SDS011;42705;50.326;18.772;2022-12-18T18:55:51;117.05;;;41.02;;
56824;SDS011;42705;50.326;18.772;2022-12-18T19:01:14;110.37;;;40.63;;
56824;SDS011;42705;50.326;18.772;2022-12-18T19:06:38;111.03;;;38.40;;
56824;SDS011;42705;50.326;18.772;2022-12-18T19:12:00;112.52;;;39.92;;
56824;SDS011;42705;50.326;18.772;2022-12-18T19:17:40;101.05;;;37.65;;
56824;SDS011;42705;50.326;18.772;2022-12-18T19:23:04;76.12;;;25.50;;
56824;SDS011;42705;50.326;18.772;2022-12-18T19:28:26;96.08;;;36.53;;
56824;SDS011;42705;50.326;18.772;2022-12-18T19:33:52;101.85;;;37.50;;
56824;SDS011;42705;50.326;18.772;2022-12-18T19:39:16;97.80;;;39.05;;
56824;SDS011;42705;50.326;18.772;2022-12-18T19:44:41;89.83;;;34.27;;
56824;SDS011;42705;50.326;18.772;2022-12-18T19:50:03;84.00;;;31.82;;
56824;SDS011;42705;50.326;18.772;2022-12-18T19:55:26;109.20;;;41.88;;
56824;SDS011;42705;50.326;18.772;2022-12-18T20:00:49;114.77;;;41.65;;
56824;SDS011;42705;50.326;18.772;2022-12-18T20:11:53;117.05;;;41.42;;
56824;SDS011;42705;50.326;18.772;2022-12-18T20:17:16;108.85;;;37.03;;
56824;SDS011;42705;50.326;18.772;2022-12-18T20:22:37;104.50;;;36.58;;
56824;SDS011;42705;50.326;18.772;2022-12-18T20:27:58;107.78;;;42.23;;
56824;SDS011;42705;50.326;18.772;2022-12-18T20:33:20;114.88;;;42.60;;
56824;SDS011;42705;50.326;18.772;2022-12-18T20:38:44;98.35;;;37.93;;
56824;SDS011;42705;50.326;18.772;2022-12-18T20:44:13;94.83;;;37.13;;
56824;SDS011;42705;50.326;18.772;2022-12-18T20:49:38;99.80;;;37.75;;
56824;SDS011;42705;50.326;18.772;2022-12-18T20:55:01;95.38;;;35.10;;
56824;SDS011;42705;50.326;18.772;2022-12-18T21:00:29;70.55;;;26.07;;
56824;SDS011;42705;50.326;18.772;2022-12-18T21:05:50;89.37;;;33.63;;
56824;SDS011;42705;50.326;18.772;2022-12-18T21:17:02;92.90;;;32.93;;
56824;SDS011;42705;50.326;18.772;2022-12-18T21:22:24;80.32;;;30.27;;
56824;SDS011;42705;50.326;18.772;2022-12-18T21:27:47;119.47;;;42.88;;
56824;SDS011;42705;50.326;18.772;2022-12-18T21:33:11;115.67;;;39.80;;
56824;SDS011;42705;50.326;18.772;2022-12-18T21:38:32;106.72;;;39.42;;
56824;SDS011;42705;50.326;18.772;2022-12-18T21:43:55;101.30;;;37.15;;
56824;SDS011;42705;50.326;18.772;2022-12-18T21:49:26;96.45;;;33.98;;
56824;SDS011;42705;50.326;18.772;2022-12-18T21:54:48;97.75;;;34.00;;
56824;SDS011;42705;50.326;18.772;2022-12-18T22:00:10;96.02;;;33.63;;
56824;SDS011;42705;50.326;18.772;2022-12-18T22:05:33;93.33;;;32.03;;
56824;SDS011;42705;50.326;18.772;2022-12-18T22:10:56;92.62;;;32.78;;
56824;SDS011;42705;50.326;18.772;2022-12-18T22:16:18;85.77;;;30.10;;
56824;SDS011;42705;50.326;18.772;2022-12-18T22:21:42;87.67;;;32.70;;
56824;SDS011;42705;50.326;18.772;2022-12-18T22:27:07;76.82;;;29.00;;
56824;SDS011;42705;50.326;18.772;2022-12-18T22:32:34;81.78;;;28.75;;
56824;SDS011;42705;50.326;18.772;2022-12-18T22:37:54;98.00;;;36.23;;
56824;SDS011;42705;50.326;18.772;2022-12-18T22:43:18;93.40;;;34.33;;
56824;SDS011;42705;50.326;18.772;2022-12-18T22:48:39;75.83;;;30.52;;
56824;SDS011;42705;50.326;18.772;2022-12-18T22:54:00;90.10;;;33.42;;
56824;SDS011;42705;50.326;18.772;2022-12-18T22:59:21;87.55;;;32.50;;
56824;SDS011;42705;50.326;18.772;2022-12-18T23:04:43;99.22;;;35.92;;
56824;SDS011;42705;50.326;18.772;2022-12-18T23:10:05;95.85;;;31.70;;
56824;SDS011;42705;50.326;18.772;2022-12-18T23:15:27;78.80;;;27.07;;
56824;SDS011;42705;50.326;18.772;2022-12-18T23:20:49;78.17;;;29.40;;
56824;SDS011;42705;50.326;18.772;2022-12-18T23:26:16;72.47;;;26.73;;
56824;SDS011;42705;50.326;18.772;2022-12-18T23:31:37;71.53;;;24.77;;
56824;SDS011;42705;50.326;18.772;2022-12-18T23:36:59;87.40;;;31.52;;
56824;SDS011;42705;50.326;18.772;2022-12-18T23:42:20;88.47;;;30.55;;
56824;SDS011;42705;50.326;18.772;2022-12-18T23:47:41;93.35;;;31.65;;
56824;SDS011;42705;50.326;18.772;2022-12-18T23:53:02;86.67;;;31.03;;
56824;SDS011;42705;50.326;18.772;2022-12-18T23:58:23;73.22;;;26.33;;
